Time;durP1;ratioP1;P1;durP2;ratioP2;P2;SDS_P1;SDS_P2;PMS_P1;PMS_P2;Temp;Humidity;BMP_temperature;BMP_pressure;BME280_temperature;BME280_humidity;BME280_pressure;Samples;Min_cycle;Max_cycle;Signal;HPM_P1;HPM_P2
2023/07/10 00:00:57;;;;;;;8.43;4.05;;;;;;;19.57;73.67;95341.28;5048426;28;20410;-83
2023/07/10 00:03:22;;;;;;;9.43;4.03;;;;;;;19.39;73.25;95306.91;5053053;28;20203;-83
2023/07/10 00:05:48;;;;;;;7.55;4.25;;;;;;;19.43;73.56;95308.03;5035377;28;20194;-83
2023/07/10 00:08:13;;;;;;;5.18;3.33;;;;;;;19.51;73.38;95334.31;5053398;28;20169;-83
2023/07/10 00:10:39;;;;;;;9.27;3.45;;;;;;;19.37;73.08;95317.03;5053452;28;20158;-83
2023/07/10 00:13:04;;;;;;;5.20;3.50;;;;;;;19.05;73.44;95273.50;5053363;28;20646;-83
2023/07/10 00:15:30;;;;;;;6.78;3.40;;;;;;;19.28;73.52;95315.13;5052904;28;20171;-83
2023/07/10 00:17:55;;;;;;;3.40;2.97;;;;;;;19.27;73.78;95318.84;5053180;28;20659;-84
2023/07/10 00:20:23;;;;;;;5.47;3.20;;;;;;;19.26;73.03;95322.56;5052917;28;20563;-84
2023/07/10 00:22:49;;;;;;;10.18;4.72;;;;;;;19.10;73.11;95300.25;5035068;28;20164;-83
2023/07/10 00:25:15;;;;;;;6.28;4.22;;;;;;;19.11;74.32;95308.00;5053158;28;20182;-82
2023/07/10 00:27:43;;;;;;;6.43;4.40;;;;;;;19.24;74.46;95325.47;5053287;28;20179;-82
2023/07/10 00:30:20;;;;;;;5.22;3.72;;;;;;;18.88;73.85;95288.81;5052952;28;20538;-82
2023/07/10 00:32:51;;;;;;;4.50;3.30;;;;;;;19.07;74.35;95338.94;5053241;28;20171;-82
2023/07/10 00:35:17;;;;;;;5.60;4.00;;;;;;;18.93;74.43;95312.91;5053077;28;20197;-82
2023/07/10 00:37:49;;;;;;;4.93;3.55;;;;;;;19.06;75.43;95337.31;5052523;28;20698;-82
2023/07/10 00:40:23;;;;;;;9.98;3.95;;;;;;;18.78;75.58;95297.53;5052756;28;20258;-82
2023/07/10 00:42:59;;;;;;;6.32;2.92;;;;;;;19.08;75.77;95329.06;5052643;28;20625;-82
2023/07/10 00:45:24;;;;;;;6.00;3.38;;;;;;;19.06;75.55;95321.31;5052602;28;20314;-82
2023/07/10 00:48:16;;;;;;;6.03;3.15;;;;;;;19.03;74.07;95321.00;5052862;28;20701;-82
2023/07/10 00:50:46;;;;;;;5.18;3.72;;;;;;;19.02;75.08;95328.22;5052654;28;20634;-82
2023/07/10 00:53:25;;;;;;;7.82;3.10;;;;;;;18.79;74.80;95304.47;5052534;28;20167;-82
2023/07/10 00:55:53;;;;;;;7.10;3.80;;;;;;;18.85;75.47;95314.94;5034411;28;20175;-82
2023/07/10 00:58:32;;;;;;;4.45;3.67;;;;;;;18.92;76.23;95337.97;5030415;28;20178;-82
2023/07/10 01:00:58;;;;;;;4.45;3.22;;;;;;;18.77;76.17;95310.06;5049145;28;20171;-82
2023/07/10 01:03:25;;;;;;;8.77;3.33;;;;;;;18.70;75.46;95304.13;5044014;28;20199;-81
2023/07/10 01:05:50;;;;;;;7.15;4.30;;;;;;;18.88;75.66;95335.00;5052175;28;20614;-81
2023/07/10 01:08:16;;;;;;;5.25;3.70;;;;;;;18.85;75.69;95333.63;5052257;28;20174;-81
2023/07/10 01:10:41;;;;;;;5.70;4.07;;;;;;;18.76;75.72;95321.81;5052208;28;20171;-82
2023/07/10 01:13:07;;;;;;;6.53;4.13;;;;;;;18.58;75.81;95295.47;5034353;28;20209;-81
2023/07/10 01:15:32;;;;;;;5.70;3.53;;;;;;;18.72;76.55;95333.22;5052414;28;20162;-81
2023/07/10 01:17:58;;;;;;;6.75;3.17;;;;;;;18.58;76.95;95310.66;5052228;28;20167;-81
2023/07/10 01:20:44;;;;;;;7.45;3.92;;;;;;;18.60;77.64;95319.19;5051984;28;20545;-81
2023/07/10 01:23:10;;;;;;;5.55;3.50;;;;;;;18.63;77.87;95321.38;5052066;28;20198;-81
2023/07/10 01:25:58;;;;;;;5.40;3.42;;;;;;;18.61;77.35;95316.28;5052376;28;20170;-81
2023/07/10 01:28:24;;;;;;;6.13;3.72;;;;;;;18.51;77.29;95318.78;5048811;28;20183;-81
2023/07/10 01:30:53;;;;;;;6.30;3.75;;;;;;;18.54;77.80;95320.16;5052054;28;20175;-80
2023/07/10 01:33:27;;;;;;;6.43;3.40;;;;;;;18.56;77.61;95332.19;5052167;28;20214;-81
2023/07/10 01:35:57;;;;;;;5.63;3.58;;;;;;;18.59;77.06;95345.09;5025928;28;20582;-81
2023/07/10 01:38:34;;;;;;;3.92;3.22;;;;;;;18.45;76.61;95315.28;5033820;28;20286;-81
2023/07/10 01:41:12;;;;;;;7.47;2.95;;;;;;;18.50;77.11;95321.72;5047955;28;20201;-81
2023/07/10 01:43:38;;;;;;;5.55;3.42;;;;;;;18.58;77.16;95332.00;5051675;28;20199;-82
2023/07/10 01:46:17;;;;;;;6.85;3.72;;;;;;;18.35;76.96;95306.34;5052077;28;20289;-82
2023/07/10 01:48:42;;;;;;;14.77;3.45;;;;;;;18.25;77.23;95293.69;5052088;28;20182;-81
2023/07/10 01:51:07;;;;;;;6.43;3.58;;;;;;;18.44;77.05;95336.84;5051700;28;20670;-81
2023/07/10 01:53:33;;;;;;;6.22;3.00;;;;;;;18.41;77.21;95334.69;5033826;28;20516;-81
2023/07/10 01:55:59;;;;;;;4.82;3.47;;;;;;;18.19;77.33;95309.88;5051667;28;20183;-82
2023/07/10 01:58:24;;;;;;;5.40;3.55;;;;;;;18.01;77.20;95293.09;5051809;28;20182;-82
2023/07/10 02:00:49;;;;;;;6.70;3.78;;;;;;;18.01;77.33;95308.28;5051586;28;20265;-82
2023/07/10 02:03:15;;;;;;;8.32;3.45;;;;;;;18.06;77.51;95313.69;5051668;28;20194;-82
2023/07/10 02:05:40;;;;;;;4.43;3.20;;;;;;;18.08;77.41;95308.91;5051582;28;20237;-82
2023/07/10 02:08:06;;;;;;;5.05;3.28;;;;;;;18.07;77.76;95312.66;5051472;28;20175;-82
2023/07/10 02:10:32;;;;;;;6.57;3.22;;;;;;;18.08;77.51;95308.91;5051493;28;20190;-82
2023/07/10 02:12:59;;;;;;;4.45;3.45;;;;;;;17.83;77.57;95281.91;5033754;28;20556;-82
2023/07/10 02:15:25;;;;;;;4.65;3.15;;;;;;;18.05;77.36;95322.75;5051384;28;20179;-82
2023/07/10 02:17:51;;;;;;;7.22;3.70;;;;;;;17.89;77.63;95302.28;5034381;28;20216;-82
2023/07/10 02:20:16;;;;;;;9.63;3.30;;;;;;;18.17;78.04;95350.06;5035703;28;20213;-82
2023/07/10 02:22:42;;;;;;;5.97;3.30;;;;;;;18.12;78.18;95339.34;5037139;28;20258;-81
2023/07/10 02:25:08;;;;;;;6.03;3.38;;;;;;;18.06;78.39;95327.03;5055598;28;20219;-81
2023/07/10 02:27:33;;;;;;;4.32;3.50;;;;;;;18.02;78.28;95320.56;5055295;28;20167;-81
2023/07/10 02:29:58;;;;;;;7.68;3.35;;;;;;;17.83;78.35;95303.22;5055158;28;20171;-81
2023/07/10 02:32:24;;;;;;;6.25;4.22;;;;;;;17.84;78.43;95315.50;5055341;28;20178;-81
2023/07/10 02:34:49;;;;;;;10.85;6.25;;;;;;;17.92;78.66;95329.22;5055366;28;20163;-81
2023/07/10 02:37:15;;;;;;;8.93;3.72;;;;;;;18.02;78.68;95357.88;5054933;28;20250;-81
2023/07/10 02:39:40;;;;;;;10.85;6.82;;;;;;;18.06;78.90;95361.66;5037180;28;20171;-81
2023/07/10 02:42:06;;;;;;;10.88;4.53;;;;;;;18.01;78.26;95365.06;5037202;28;20556;-81
2023/07/10 02:44:31;;;;;;;8.35;3.67;;;;;;;17.97;78.86;95363.13;5054830;28;20231;-81
2023/07/10 02:46:57;;;;;;;9.02;4.05;;;;;;;17.81;78.74;95335.47;5037126;28;20248;-81
2023/07/10 02:49:22;;;;;;;9.45;4.97;;;;;;;17.67;78.94;95323.50;5037292;28;20163;-81
2023/07/10 02:51:47;;;;;;;6.00;3.67;;;;;;;17.65;79.11;95329.06;5054974;28;20178;-82
2023/07/10 02:54:13;;;;;;;7.72;4.50;;;;;;;17.75;79.05;95351.59;5054883;28;20167;-81
2023/07/10 02:56:39;;;;;;;13.48;4.07;;;;;;;17.76;78.89;95366.53;5054687;28;20167;-81
2023/07/10 02:59:05;;;;;;;12.85;4.95;;;;;;;17.87;79.55;95373.63;5054702;28;20203;-81
2023/07/10 03:01:30;;;;;;;11.93;7.20;;;;;;;17.89;79.76;95374.19;5036979;28;20190;-81
2023/07/10 03:03:56;;;;;;;15.30;7.53;;;;;;;17.60;79.57;95325.50;5054917;28;20685;-81
2023/07/10 03:06:23;;;;;;;13.82;6.53;;;;;;;17.79;79.56;95350.88;5054911;28;20160;-81
2023/07/10 03:08:48;;;;;;;24.83;6.40;;;;;;;17.81;79.32;95363.94;5049902;28;20323;-81
2023/07/10 03:11:15;;;;;;;11.65;5.63;;;;;;;17.48;79.78;95319.44;5054073;28;20170;-81
2023/07/10 03:13:40;;;;;;;9.43;5.78;;;;;;;17.78;79.94;95373.22;5052066;28;20613;-81
2023/07/10 03:16:11;;;;;;;9.30;4.22;;;;;;;17.83;79.47;95377.81;5054630;28;20247;-81
2023/07/10 03:18:38;;;;;;;7.68;4.85;;;;;;;17.75;79.54;95367.56;5054879;28;20614;-81
2023/07/10 03:21:03;;;;;;;8.77;4.68;;;;;;;17.88;80.17;95378.72;5054538;28;20158;-81
2023/07/10 03:23:29;;;;;;;6.70;4.03;;;;;;;17.88;79.71;95384.03;5054024;28;20183;-81
2023/07/10 03:25:54;;;;;;;8.25;5.22;;;;;;;17.65;80.11;95352.22;5054045;28;20183;-80
2023/07/10 03:28:21;;;;;;;7.90;5.28;;;;;;;17.80;80.22;95370.31;5054226;28;20179;-82
2023/07/10 03:30:46;;;;;;;13.63;5.15;;;;;;;17.89;80.87;95367.03;5054063;28;20163;-79
2023/07/10 03:33:14;;;;;;;10.60;4.55;;;;;;;17.94;80.53;95371.59;5054179;28;20250;-81
2023/07/10 03:35:40;;;;;;;10.38;4.60;;;;;;;18.00;79.75;95362.63;5054729;28;20171;-83
2023/07/10 03:38:06;;;;;;;11.48;4.75;;;;;;;17.89;79.33;95332.38;5053602;28;20219;-83
2023/07/10 03:40:31;;;;;;;10.00;4.35;;;;;;;18.34;79.42;95392.69;5035872;28;20167;-82
2023/07/10 03:42:57;;;;;;;8.13;4.88;;;;;;;18.42;79.18;95387.75;5053731;28;20368;-81
2023/07/10 03:45:22;;;;;;;10.75;4.35;;;;;;;18.47;77.72;95385.16;5053865;28;20735;-83
2023/07/10 03:47:47;;;;;;;7.50;4.15;;;;;;;18.34;76.55;95364.16;5053803;28;20174;-82
2023/07/10 03:50:13;;;;;;;10.13;4.10;;;;;;;18.73;77.15;95396.19;5053785;28;20633;-82
2023/07/10 03:52:38;;;;;;;7.43;3.90;;;;;;;18.55;77.04;95354.59;5053536;28;20209;-81
2023/07/10 03:55:04;;;;;;;6.13;3.85;;;;;;;19.04;76.31;95408.81;5035757;28;20644;-81
2023/07/10 03:57:29;;;;;;;7.10;3.50;;;;;;;18.87;74.68;95357.38;5053660;28;20170;-81
2023/07/10 03:59:55;;;;;;;6.03;3.33;;;;;;;19.28;74.67;95408.56;5053560;28;20163;-82
2023/07/10 04:02:20;;;;;;;10.60;3.88;;;;;;;19.43;74.30;95412.19;5053654;28;20190;-82
2023/07/10 04:04:46;;;;;;;7.32;3.58;;;;;;;19.52;74.07;95396.53;5035334;28;20674;-82
2023/07/10 04:07:11;;;;;;;10.43;3.97;;;;;;;19.68;73.05;95403.63;5053310;28;20631;-83
2023/07/10 04:09:37;;;;;;;6.43;3.83;;;;;;;19.75;72.16;95393.53;5052825;28;20261;-82
2023/07/10 04:12:02;;;;;;;14.85;4.32;;;;;;;20.06;73.15;95415.97;5051293;28;20616;-82
2023/07/10 04:14:28;;;;;;;9.07;3.72;;;;;;;19.95;71.33;95393.69;5051203;28;20262;-82
2023/07/10 04:16:53;;;;;;;14.93;3.75;;;;;;;20.22;70.50;95416.88;5052478;28;20193;-82
2023/07/10 04:19:19;;;;;;;7.25;3.65;;;;;;;20.40;71.20;95421.84;5053227;28;20665;-82
2023/07/10 04:21:45;;;;;;;8.95;3.30;;;;;;;20.38;69.69;95401.78;5053109;28;20175;-81
2023/07/10 04:24:10;;;;;;;24.17;4.60;;;;;;;20.41;69.36;95371.84;5053364;28;20562;-81
2023/07/10 04:26:36;;;;;;;12.07;4.45;;;;;;;20.44;68.46;95345.38;5053067;28;20305;-82
2023/07/10 04:29:04;;;;;;;8.00;3.63;;;;;;;20.70;67.48;95357.78;5052903;28;20170;-82
2023/07/10 04:31:30;;;;;;;8.77;4.40;;;;;;;21.26;68.82;95408.09;5053047;28;20171;-81
2023/07/10 04:33:56;;;;;;;8.25;5.10;;;;;;;21.20;67.83;95377.78;5052894;28;20920;-81
2023/07/10 04:36:22;;;;;;;12.85;4.70;;;;;;;21.67;66.97;95420.50;5053606;28;20183;-82
2023/07/10 04:38:49;;;;;;;17.90;6.82;;;;;;;21.77;66.40;95414.34;5052608;28;20226;-81
2023/07/10 04:41:17;;;;;;;11.55;5.65;;;;;;;21.64;66.10;95367.41;5052747;28;20179;-81
2023/07/10 04:43:43;;;;;;;15.07;4.97;;;;;;;22.20;65.04;95427.25;5045062;28;20278;-82
2023/07/10 04:46:10;;;;;;;11.10;4.60;;;;;;;22.41;63.75;95428.00;5052562;28;20242;-82
2023/07/10 04:48:36;;;;;;;8.05;3.72;;;;;;;22.40;63.27;95393.44;5052395;28;20185;-82
2023/07/10 04:51:03;;;;;;;7.47;3.90;;;;;;;22.49;62.93;95389.06;5052547;28;20171;-82
2023/07/10 04:53:32;;;;;;;16.45;5.28;;;;;;;22.72;61.96;95393.88;5052780;28;20162;-82
2023/07/10 04:56:01;;;;;;;9.55;4.50;;;;;;;22.86;64.01;95380.69;5052816;28;20174;-81
2023/07/10 04:58:28;;;;;;;7.82;3.35;;;;;;;23.27;61.26;95405.47;5052646;28;20170;-81
2023/07/10 05:00:56;;;;;;;10.40;3.70;;;;;;;23.57;62.30;95407.22;5052185;28;20175;-81
2023/07/10 05:03:22;;;;;;;9.27;3.88;;;;;;;23.68;60.91;95396.13;5052351;28;20297;-81
2023/07/10 05:05:52;;;;;;;9.88;4.18;;;;;;;23.87;60.63;95398.94;5052558;28;20665;-81
2023/07/10 05:08:18;;;;;;;12.85;4.50;;;;;;;24.05;61.97;95386.69;5032858;28;20258;-81
2023/07/10 05:10:43;;;;;;;10.02;3.83;;;;;;;24.00;60.70;95354.44;5052368;28;20246;-81
2023/07/10 05:13:09;;;;;;;11.05;3.72;;;;;;;24.49;60.09;95401.91;5052534;28;20169;-82
2023/07/10 05:15:34;;;;;;;10.05;4.55;;;;;;;24.60;60.37;95400.72;5052172;28;20907;-82
2023/07/10 05:17:59;;;;;;;9.90;4.15;;;;;;;24.83;60.39;95408.81;5047260;28;20175;-82
2023/07/10 05:20:25;;;;;;;8.32;3.85;;;;;;;25.07;58.91;95413.44;5052101;28;20195;-82
2023/07/10 05:22:50;;;;;;;8.63;3.58;;;;;;;25.23;60.26;95397.88;5052238;28;20163;-82
2023/07/10 05:25:16;;;;;;;11.13;4.20;;;;;;;25.54;59.18;95423.31;5033974;28;20167;-81
2023/07/10 05:27:41;;;;;;;5.82;3.20;;;;;;;25.54;59.32;95377.47;5051948;28;20224;-81
2023/07/10 05:30:07;;;;;;;7.18;4.00;;;;;;;26.03;58.46;95424.81;5052080;28;20213;-81
2023/07/10 05:32:32;;;;;;;5.72;3.50;;;;;;;26.21;57.12;95421.25;5051912;28;20182;-81
2023/07/10 05:34:58;;;;;;;7.07;3.85;;;;;;;25.96;55.26;95370.38;5052159;28;20178;-81
2023/07/10 05:37:23;;;;;;;14.63;4.20;;;;;;;26.16;56.74;95388.97;5052210;28;20274;-81
2023/07/10 05:39:49;;;;;;;9.45;5.05;;;;;;;26.27;55.05;95387.72;5052072;28;20163;-82
2023/07/10 05:42:14;;;;;;;11.60;3.80;;;;;;;25.91;53.94;95331.63;5033864;28;20167;-82
2023/07/10 05:44:40;;;;;;;5.18;3.97;;;;;;;26.50;55.72;95377.84;5051615;28;20755;-82
2023/07/10 05:47:05;;;;;;;12.18;5.32;;;;;;;26.78;55.93;95381.38;5051810;28;20179;-82
2023/07/10 05:49:31;;;;;;;9.73;4.38;;;;;;;27.12;54.98;95403.44;5051980;28;20159;-82
2023/07/10 05:51:57;;;;;;;9.70;3.88;;;;;;;27.40;55.03;95421.25;5051963;28;20156;-82
2023/07/10 05:54:22;;;;;;;6.90;3.28;;;;;;;27.43;49.96;95406.28;5052397;28;20194;-81
2023/07/10 05:56:47;;;;;;;11.18;3.90;;;;;;;27.35;52.10;95378.06;5055923;28;20175;-82
2023/07/10 05:59:14;;;;;;;12.02;3.78;;;;;;;27.42;52.06;95383.84;5055885;28;20634;-82
2023/07/10 06:01:42;;;;;;;5.13;3.63;;;;;;;27.93;53.06;95431.47;5055733;28;20259;-82
2023/07/10 06:04:07;;;;;;;14.45;4.60;;;;;;;28.22;53.22;95422.94;5037800;28;20677;-82
2023/07/10 06:06:33;;;;;;;5.07;3.85;;;;;;;28.26;50.27;95382.50;5055658;28;20157;-82
2023/07/10 06:08:59;;;;;;;12.35;3.83;;;;;;;28.33;49.69;95372.03;5055457;28;20179;-82
2023/07/10 06:11:24;;;;;;;5.90;3.22;;;;;;;28.83;48.33;95422.19;5055549;28;20171;-82
2023/07/10 06:13:49;;;;;;;7.38;3.63;;;;;;;28.66;49.68;95386.84;5055477;28;20779;-83
2023/07/10 06:16:15;;;;;;;13.80;5.03;;;;;;;28.95;51.03;95418.09;5053975;28;20551;-82
2023/07/10 06:18:41;;;;;;;7.78;4.10;;;;;;;28.98;50.08;95418.28;5055662;28;20174;-82
2023/07/10 06:21:08;;;;;;;4.80;3.45;;;;;;;29.12;48.87;95423.59;5055548;28;20170;-82
2023/07/10 06:23:34;;;;;;;9.68;4.13;;;;;;;29.15;48.91;95423.75;5055264;28;20226;-82
2023/07/10 06:26:00;;;;;;;5.13;2.97;;;;;;;29.03;48.81;95401.88;5055184;28;20191;-82
2023/07/10 06:28:26;;;;;;;7.50;3.25;;;;;;;29.28;48.77;95427.47;5055466;28;20657;-82
2023/07/10 06:30:57;;;;;;;8.73;3.75;;;;;;;29.29;49.74;95418.22;5055290;28;20167;-82
2023/07/10 06:33:23;;;;;;;5.43;2.97;;;;;;;29.20;48.92;95401.13;5053191;28;20246;-82
2023/07/10 06:35:48;;;;;;;5.20;2.80;;;;;;;29.40;48.48;95432.34;5055200;28;20267;-83
2023/07/10 06:38:14;;;;;;;4.35;2.95;;;;;;;29.50;50.30;95423.88;5054994;28;20226;-83
2023/07/10 06:40:39;;;;;;;5.90;3.42;;;;;;;29.74;49.07;95439.75;5055160;28;20175;-82
2023/07/10 06:43:05;;;;;;;7.88;3.05;;;;;;;29.83;48.45;95433.19;5037018;28;20745;-82
2023/07/10 06:45:30;;;;;;;6.50;3.55;;;;;;;29.94;47.96;95442.66;5035541;28;20168;-83
2023/07/10 06:47:55;;;;;;;4.40;3.10;;;;;;;29.83;48.93;95408.75;5054891;28;20183;-83
2023/07/10 06:50:21;;;;;;;9.43;3.70;;;;;;;29.98;46.94;95408.31;5054889;28;20199;-83
2023/07/10 06:52:46;;;;;;;6.05;3.33;;;;;;;30.26;48.93;95433.22;5054818;28;20202;-84
2023/07/10 06:55:15;;;;;;;7.45;3.05;;;;;;;30.46;48.42;95437.16;5054785;28;20206;-84
2023/07/10 06:57:41;;;;;;;9.18;4.65;;;;;;;30.63;46.82;95431.72;5054828;28;20170;-82
2023/07/10 07:00:08;;;;;;;6.55;2.80;;;;;;;30.41;45.71;95434.63;5054244;28;20253;-83
2023/07/10 07:02:35;;;;;;;10.43;2.92;;;;;;;30.36;45.39;95430.16;5036545;28;20175;-83
2023/07/10 07:05:01;;;;;;;6.22;2.72;;;;;;;30.15;47.22;95409.41;5053979;28;20191;-83
2023/07/10 07:07:26;;;;;;;5.85;2.95;;;;;;;29.86;45.29;95388.28;5054372;28;20555;-85
2023/07/10 07:09:51;;;;;;;10.75;3.28;;;;;;;29.81;46.92;95424.56;5037148;28;20190;-81
2023/07/10 07:12:17;;;;;;;4.85;3.20;;;;;;;29.64;47.17;95428.06;5036390;28;20167;-81
2023/07/10 07:14:42;;;;;;;8.18;3.10;;;;;;;29.56;47.57;95392.78;5053614;28;20716;-81
2023/07/10 07:17:08;;;;;;;6.40;2.85;;;;;;;29.70;48.73;95387.19;5054257;28;20194;-80
2023/07/10 07:19:33;;;;;;;8.10;2.97;;;;;;;30.18;46.59;95427.81;5054455;28;20178;-81
2023/07/10 07:22:00;;;;;;;4.78;2.78;;;;;;;30.41;46.86;95420.25;5054208;28;20569;-80
2023/07/10 07:24:26;;;;;;;3.42;2.42;;;;;;;30.64;47.20;95413.50;5057176;28;20198;-80
2023/07/10 07:26:51;;;;;;;5.30;3.53;;;;;;;30.69;45.75;95408.69;5053964;28;20179;-80
2023/07/10 07:29:16;;;;;;;13.80;4.18;;;;;;;30.76;44.88;95410.91;5053907;28;20560;-81
2023/07/10 07:31:42;;;;;;;4.55;2.53;;;;;;;30.58;46.75;95374.03;5053993;28;20177;-82
2023/07/10 07:34:08;;;;;;;6.90;3.30;;;;;;;30.84;45.50;95406.56;5053785;28;20171;-82
2023/07/10 07:36:34;;;;;;;6.10;2.63;;;;;;;30.60;44.73;95369.88;5053950;28;20210;-81
2023/07/10 07:39:04;;;;;;;3.58;2.58;;;;;;;30.86;45.99;95416.00;5053471;28;20218;-83
2023/07/10 07:41:33;;;;;;;5.30;3.13;;;;;;;30.89;46.07;95400.94;5035939;28;20212;-84
2023/07/10 07:44:00;;;;;;;6.15;2.90;;;;;;;30.89;45.43;95371.00;5063164;28;20259;-83
2023/07/10 07:46:26;;;;;;;3.97;2.47;;;;;;;30.95;43.47;95407.81;5039900;28;20183;-83
2023/07/10 07:48:51;;;;;;;5.65;2.70;;;;;;;30.97;44.88;95394.66;5053696;28;20175;-82
2023/07/10 07:51:17;;;;;;;5.47;2.70;;;;;;;30.94;45.71;95373.56;5053890;28;20167;-87
2023/07/10 07:53:42;;;;;;;15.13;3.03;;;;;;;31.06;46.64;95354.59;5053677;28;20229;-82
2023/07/10 07:56:09;;;;;;;4.65;2.85;;;;;;;31.60;44.68;95404.59;5053324;28;20254;-82
2023/07/10 07:58:35;;;;;;;3.53;2.40;;;;;;;31.37;42.59;95367.91;5053273;28;20182;-82
2023/07/10 08:01:00;;;;;;;5.50;2.95;;;;;;;31.68;43.52;95394.78;5052509;28;20248;-81
2023/07/10 08:03:27;;;;;;;5.00;2.17;;;;;;;31.77;45.48;95398.25;5053452;28;20648;-81
2023/07/10 08:05:52;;;;;;;4.15;2.35;;;;;;;31.79;43.31;95402.25;5051820;28;20202;-81
2023/07/10 08:08:18;;;;;;;3.70;2.53;;;;;;;31.88;43.24;95394.00;5031813;28;20645;-81
2023/07/10 08:10:46;;;;;;;7.45;3.17;;;;;;;32.12;43.90;95388.66;5050134;28;20566;-81
2023/07/10 08:13:13;;;;;;;15.05;3.30;;;;;;;32.06;42.41;95389.22;5050018;28;20174;-81
2023/07/10 08:15:39;;;;;;;5.78;2.40;;;;;;;31.70;43.49;95373.47;5050091;28;20182;-81
2023/07/10 08:18:05;;;;;;;5.68;2.70;;;;;;;31.82;43.89;95374.34;5055556;28;20250;-81
2023/07/10 08:20:32;;;;;;;3.33;2.53;;;;;;;32.05;43.19;95391.13;5034987;28;20300;-81
2023/07/10 08:22:58;;;;;;;4.00;2.50;;;;;;;32.13;43.42;95379.34;5055124;28;20645;-81
2023/07/10 08:25:23;;;;;;;7.55;2.63;;;;;;;32.08;42.13;95359.69;5053078;28;20689;-80
2023/07/10 08:27:48;;;;;;;3.13;2.42;;;;;;;31.85;40.55;95397.38;5052849;28;20198;-82
2023/07/10 08:30:15;;;;;;;3.88;2.55;;;;;;;31.92;44.66;95388.66;5052768;28;20182;-83
2023/07/10 08:32:41;;;;;;;8.65;3.10;;;;;;;31.73;44.36;95349.09;5052733;28;20182;-82
2023/07/10 08:35:07;;;;;;;3.08;2.72;;;;;;;31.94;45.23;95359.16;5052310;28;20171;-82
2023/07/10 08:37:33;;;;;;;3.08;2.70;;;;;;;32.15;43.16;95384.47;5052198;28;20222;-81
2023/07/10 08:39:58;;;;;;;5.60;2.40;;;;;;;31.89;43.36;95381.97;5033550;28;20229;-81
2023/07/10 08:42:29;;;;;;;6.03;3.70;;;;;;;31.73;44.58;95395.41;5051471;28;20183;-81
2023/07/10 08:44:55;;;;;;;5.32;3.20;;;;;;;31.77;45.96;95390.06;5050795;28;20241;-81
2023/07/10 08:47:35;;;;;;;3.65;2.45;;;;;;;32.02;44.30;95391.00;5049428;28;20230;-80
2023/07/10 08:50:16;;;;;;;4.28;2.85;;;;;;;31.72;45.69;95371.22;5051235;28;20178;-81
2023/07/10 08:52:53;;;;;;;6.05;2.88;;;;;;;31.81;45.03;95375.47;5054379;28;20187;-81
2023/07/10 08:55:29;;;;;;;5.82;4.03;;;;;;;31.89;42.88;95381.19;5052737;28;20163;-80
2023/07/10 08:58:00;;;;;;;8.48;3.55;;;;;;;31.75;42.48;95374.06;5050020;28;20162;-81
2023/07/10 09:00:34;;;;;;;3.10;2.78;;;;;;;31.71;44.97;95391.41;5052797;28;20170;-83
2023/07/10 09:03:28;;;;;;;8.48;3.25;;;;;;;31.81;44.37;95383.66;5035875;28;20174;-81
2023/07/10 09:05:54;;;;;;;7.35;2.63;;;;;;;31.85;44.30;95372.88;5052138;28;20167;-81
2023/07/10 09:08:21;;;;;;;8.77;2.95;;;;;;;31.95;41.62;95377.13;5050127;28;20309;-80
2023/07/10 09:10:53;;;;;;;6.43;3.53;;;;;;;31.88;41.08;95376.84;5034544;28;20466;-81
2023/07/10 09:13:42;;;;;;;3.97;2.60;;;;;;;31.93;43.35;95372.00;5033166;28;20261;-81
2023/07/10 09:16:19;;;;;;;5.82;2.90;;;;;;;31.97;41.32;95380.31;5030524;28;20575;-81
2023/07/10 09:19:05;;;;;;;5.72;2.80;;;;;;;31.30;41.23;95368.44;5035529;28;20193;-80
2023/07/10 09:21:35;;;;;;;17.77;11.90;;;;;;;31.02;43.51;95373.53;5046915;28;20171;-80
2023/07/10 09:24:03;;;;;;;8.30;4.32;;;;;;;30.82;44.93;95363.38;5051434;28;20203;-81
2023/07/10 09:26:32;;;;;;;8.38;4.50;;;;;;;30.87;47.92;95368.66;5034275;28;20211;-80
2023/07/10 09:29:00;;;;;;;5.63;2.92;;;;;;;30.98;45.71;95367.13;5049673;28;20182;-80
2023/07/10 09:31:44;;;;;;;5.57;3.15;;;;;;;31.27;42.15;95373.75;5050291;28;20599;-80
2023/07/10 09:34:11;;;;;;;11.68;3.08;;;;;;;31.39;42.89;95371.13;5049262;28;20179;-80
2023/07/10 09:36:37;;;;;;;3.20;2.58;;;;;;;31.36;40.42;95352.72;5049851;28;20183;-81
2023/07/10 09:39:03;;;;;;;8.20;3.00;;;;;;;31.04;42.52;95359.59;5031433;28;20273;-80
2023/07/10 09:41:30;;;;;;;3.35;2.80;;;;;;;30.85;41.25;95361.94;5049109;28;20178;-80
2023/07/10 09:43:56;;;;;;;4.68;3.00;;;;;;;30.35;43.29;95366.06;5050265;28;20203;-80
2023/07/10 09:46:26;;;;;;;4.68;2.60;;;;;;;30.47;43.08;95364.59;5047813;28;20191;-81
2023/07/10 09:48:53;;;;;;;4.38;3.58;;;;;;;30.65;43.70;95366.16;5047301;28;20182;-81
2023/07/10 09:51:19;;;;;;;10.48;5.90;;;;;;;30.59;42.12;95359.31;5048771;28;20182;-81
2023/07/10 09:53:51;;;;;;;9.98;4.53;;;;;;;30.71;44.04;95353.97;5031336;28;20187;-81
2023/07/10 09:56:26;;;;;;;4.13;2.72;;;;;;;30.77;43.93;95344.53;5046729;28;20163;-81
2023/07/10 09:58:57;;;;;;;4.95;3.90;;;;;;;30.88;40.36;95348.44;5048872;28;20194;-81
2023/07/10 10:01:34;;;;;;;5.72;3.05;;;;;;;30.78;41.80;95335.25;5032453;28;20175;-80
2023/07/10 10:04:04;;;;;;;22.60;4.32;;;;;;;30.74;40.53;95337.00;5030956;28;20199;-80
2023/07/10 10:06:31;;;;;;;5.50;2.42;;;;;;;30.36;40.21;95326.06;5058051;28;20179;-80
2023/07/10 10:08:57;;;;;;;5.15;3.03;;;;;;;29.50;39.83;95312.59;5051114;28;20175;-80
2023/07/10 10:11:43;;;;;;;14.52;7.55;;;;;;;29.47;46.44;95324.91;5045943;28;20187;-78
2023/07/10 10:14:15;;;;;;;3.28;2.97;;;;;;;29.11;42.81;95306.16;5049992;28;20178;-78
2023/07/10 10:16:47;;;;;;;3.25;2.83;;;;;;;29.35;43.31;95322.00;5051254;28;20240;-78
2023/07/10 10:19:26;;;;;;;7.20;3.10;;;;;;;29.41;47.83;95309.88;5050836;28;20175;-79
2023/07/10 10:21:52;;;;;;;15.82;3.35;;;;;;;29.37;45.52;95308.94;5051066;28;20834;-79
2023/07/10 10:24:17;;;;;;;8.02;3.50;;;;;;;29.42;42.79;95308.78;5032149;28;20210;-79
2023/07/10 10:26:43;;;;;;;3.00;2.60;;;;;;;29.41;42.33;95315.31;5031232;28;20728;-78
2023/07/10 10:29:20;;;;;;;3.58;2.83;;;;;;;29.51;41.60;95309.56;5031808;28;20179;-78
2023/07/10 10:32:14;;;;;;;4.10;2.80;;;;;;;29.70;43.51;95305.72;5031666;28;20541;-78
2023/07/10 10:34:46;;;;;;;4.65;2.72;;;;;;;29.59;42.95;95308.78;5003314;28;20203;-79
2023/07/10 10:37:17;;;;;;;4.88;3.03;;;;;;;29.66;45.40;95308.31;5047234;28;20692;-80
2023/07/10 10:39:52;;;;;;;2.55;2.35;;;;;;;29.75;43.78;95308.31;5049411;28;20186;-79
2023/07/10 10:42:30;;;;;;;3.33;2.75;;;;;;;29.80;43.08;95291.84;5053082;28;20190;-79
2023/07/10 10:45:27;;;;;;;11.65;3.25;;;;;;;29.75;39.57;95298.22;5053469;28;20199;-79
2023/07/10 10:48:15;;;;;;;4.47;2.53;;;;;;;29.77;41.37;95308.75;5053211;28;20198;-79
2023/07/10 10:50:43;;;;;;;3.47;2.63;;;;;;;29.81;42.74;95307.81;5053328;28;20182;-80
2023/07/10 10:53:18;;;;;;;3.35;2.55;;;;;;;29.74;41.93;95296.66;5053032;28;20202;-80
2023/07/10 10:56:13;;;;;;;23.75;3.88;;;;;;;29.13;40.98;95303.94;5053190;28;20189;-79
2023/07/10 10:58:55;;;;;;;7.18;2.60;;;;;;;28.96;42.23;95294.97;5052908;28;20184;-80
2023/07/10 11:01:35;;;;;;;5.72;2.75;;;;;;;29.12;45.68;95298.84;5052952;28;20179;-79
2023/07/10 11:04:16;;;;;;;7.18;3.17;;;;;;;29.21;44.30;95296.94;5052872;28;20202;-79
2023/07/10 11:07:01;;;;;;;5.38;2.58;;;;;;;29.22;42.54;95287.69;5053187;28;20175;-79
2023/07/10 11:09:42;;;;;;;6.97;3.17;;;;;;;29.36;41.24;95288.34;5036874;28;20194;-79
2023/07/10 11:12:20;;;;;;;2.63;2.40;;;;;;;29.27;44.32;95279.38;5054654;28;20171;-80
2023/07/10 11:14:46;;;;;;;5.97;2.75;;;;;;;29.46;42.23;95289.94;5054727;28;20174;-80
2023/07/10 11:17:13;;;;;;;9.77;2.70;;;;;;;29.46;42.90;95279.09;5054415;28;20183;-80
2023/07/10 11:19:39;;;;;;;3.80;2.40;;;;;;;29.57;40.35;95285.81;5054742;28;20163;-80
2023/07/10 11:22:21;;;;;;;7.20;3.35;;;;;;;29.63;40.95;95274.44;5036280;28;20669;-79
2023/07/10 11:24:51;;;;;;;3.20;2.88;;;;;;;29.59;41.12;95268.06;5054449;28;20217;-79
2023/07/10 11:27:33;;;;;;;3.30;2.53;;;;;;;29.74;42.65;95279.56;5055770;28;20183;-79
2023/07/10 11:30:11;;;;;;;5.47;2.50;;;;;;;29.78;42.37;95275.06;5058441;28;20291;-79
2023/07/10 11:33:01;;;;;;;6.05;2.97;;;;;;;29.95;41.88;95273.13;5054294;28;20183;-80
2023/07/10 11:35:27;;;;;;;4.82;2.78;;;;;;;29.67;39.62;95236.59;5047190;28;20190;-79
2023/07/10 11:37:58;;;;;;;2.60;2.40;;;;;;;29.87;41.85;95279.34;5053839;28;20231;-80